Port Harcourt International Airport

Airport
ICAO code: 
DNPO
IATA Code: 
PHC
Summary
ICAO Region: 
AFI
Territory: 
Location: 
Omagwa, Rivers State
Serving: 
Port Harcourt
Elevation: 
87 ft
Coordinates: 
Aerial View: 
5° 0' 49.104" N, 6° 57' 2.916" E
Metar
Observation
DNPO 021000Z 28006KT 9999 BKN010 FEW020CB 31/25 Q1009 NOSIG
Station
Port Harcourt
Date/Time
2021-12-02 10:00:00
Wind direction
280°
Wind speed
06 kts
Lowest cloud amount
broken clouds
Temperature
31°C
Dew point
25°C
Humidity
70%
QNH
1009 hPa
Weather condition
n/a

Port Harcourt International Airport is located in Port Harcourt, a city in the Rivers State of Nigeria. It is the main airport serving southeastern Nigeria.

Climatology

Tropical Monsoon climate (Köppen climate classification Am)

Runways

Designator Length Width Surface Rops
3/21 3001 60 ASP Yes/Yes
Airport map: 
Aerial View: 

SKYbrary Partners:

Safety knowledge contributed by: